Provo, UT

7:33 AM MST on February 11, 2016 (GMT -0700)
Grandview near Westridge Elementary School | | Change Station
CLOSE
Current Station
Personal Weather Station
Location: Provo, UT
Elevation: 4678 ft
Nearby Weather Stations
Active Advisory: Dense Fog Advisory

Elev 4678 ft 40.26 °N, 111.68 °W | Updated 2 seconds ago

Fog
Fog
22.3 °F
Feels Like 22 °F
N
0.0
Wind Variable Wind from SSE
Gusts 0.0 mph

Today
High -- | Low -- °F
--% Chance of Precip.
Yesterday
High -- | Low -- °F
Precip. -- in
Pressure 30.45 in
Visibility 5.0 miles
Clouds Clear
Windchill 22 °F
Dew Point 17 °F
Humidity 81%
Rainfall 0.00 in
Snow Depth Not available.
7:25 AM 5:57 PM
Waxing Crescent, 12% visible
METAR K36U 111415Z AUTO 00000KT 5SM BR CLR M16/M18 A3045 RMK AO2
Pressure 30.45 in
Visibility 5.0 miles
Clouds Clear
Windchill 22 °F
Dew Point 17 °F
Humidity 81%
Rainfall 0.00 in
Snow Depth Not available.
7:25 AM 5:57 PM
Waxing Crescent, 12% visible
METAR K36U 111415Z AUTO 00000KT 5SM BR CLR M16/M18 A3045 RMK AO2

10-Day Weather Forecast

Almanac

Astronomy

Feb. 11, 2016 Rise Set
Actual Time
Civil Twilight
Nautical Twilight
Astronomical Twilight
Moon
Length of Visible Light
Length of Day
Tomorrow will be .
, % of the Moon is Illuminated

Today's Extremes

State Highs State Lows

Community

WunderPhotos

Upload Photos

1,892,054 photos uploaded!

WunderBlog® & News

Nearby

Air Quality

  Air Quality AQ Index Pollutant
Not available.

Snow Depth

Station Depth Elevation

Earthquake Activity

City Distance Mag. Time & Date
Minimum magnitude displayed is 2.5.

Coastal Water Temperatures

Place Temperature

Stations

Nearby Weather Stations

Station Location Temp. Windchill Dew Point Humidity Wind Precip. Elev Updated Type
                   

Watches & Warnings

Dense Fog Advisory
Issued: 4:37 AM MST Feb. 11, 2016 – National Weather Service

... Dense fog advisory remains in effect until 8 am MST this
morning...

* affected area... the Cache Valley... the southern Wasatch front
and west central Utah.

* Visibilities... below one quarter mile at times.

* Timing... dense fog will persist early this morning... then
gradually dissipate after mid-morning.

* Impacts... dense fog will cause frequent reductions in
visibility. If traveling... prepare for rapid changes in
visibility.

Precautionary/preparedness actions...

A dense fog advisory means visibilities will frequently be
reduced to less than one quarter mile. If driving... slow down...
use your low beam headlights... and leave plenty of distance ahead
of you.



For more information from NOAA/National Weather Service visit...